Time;durP1;ratioP1;P1;durP2;ratioP2;P2;SDS_P1;SDS_P2;PMS_P1;PMS_P2;Temp;Humidity;BMP_temperature;BMP_pressure;BME280_temperature;BME280_humidity;BME280_pressure;Samples;Min_cycle;Max_cycle;Signal;HPM_P1;HPM_P2
2023/08/18 00:01:25;;;;;;;10.40;7.20;;;;;;;22.49;64.57;100822.23;102692;277;105727;-55
2023/08/18 00:04:02;;;;;;;8.50;7.20;;;;;;;22.43;64.86;100826.19;102605;277;113879;-54
2023/08/18 00:06:40;;;;;;;8.70;6.70;;;;;;;22.37;65.17;100824.84;102652;277;96723;-54
2023/08/18 00:09:20;;;;;;;9.90;7.30;;;;;;;22.29;65.31;100824.97;102636;277;97900;-54
2023/08/18 00:11:56;;;;;;;7.80;7.00;;;;;;;22.22;65.45;100820.14;102614;277;121953;-57
2023/08/18 00:14:31;;;;;;;9.80;7.30;;;;;;;22.19;65.63;100824.50;102642;277;105967;-55
2023/08/18 00:17:09;;;;;;;10.70;8.00;;;;;;;22.17;65.79;100818.76;102645;277;114207;-53
2023/08/18 00:19:49;;;;;;;11.20;7.20;;;;;;;22.13;65.98;100813.52;102562;277;94121;-55
2023/08/18 00:22:26;;;;;;;8.30;7.10;;;;;;;22.08;66.14;100815.42;102637;277;97710;-54
2023/08/18 00:25:03;;;;;;;7.90;7.10;;;;;;;22.05;66.21;100812.31;102607;277;120967;-55
2023/08/18 00:27:39;;;;;;;7.90;7.20;;;;;;;22.05;66.26;100817.33;102487;279;105280;-56
2023/08/18 00:30:15;;;;;;;10.70;7.50;;;;;;;22.05;66.54;100831.90;102638;277;114533;-57
2023/08/18 00:32:52;;;;;;;8.80;7.20;;;;;;;22.07;66.62;100845.52;102671;277;93689;-53
2023/08/18 00:35:31;;;;;;;8.40;7.40;;;;;;;22.08;66.90;100856.61;102640;277;97650;-52
2023/08/18 00:38:14;;;;;;;10.10;6.80;;;;;;;22.10;67.00;100868.63;102633;277;121139;-52
2023/08/18 00:40:55;;;;;;;8.80;7.70;;;;;;;22.08;67.20;100872.13;102622;277;106242;-53
2023/08/18 00:43:37;;;;;;;8.20;7.40;;;;;;;22.10;67.32;100874.52;102603;277;113169;-56
2023/08/18 00:46:20;;;;;;;10.10;7.50;;;;;;;22.14;67.32;100906.29;102615;277;97093;-55
2023/08/18 00:48:59;;;;;;;8.50;7.00;;;;;;;22.23;67.28;100931.14;102666;277;97458;-56
2023/08/18 00:51:40;;;;;;;8.10;6.90;;;;;;;22.39;67.07;100945.73;102627;277;120289;-54
2023/08/18 00:54:19;;;;;;;8.70;7.40;;;;;;;22.55;66.91;100943.92;102617;277;104389;-54
2023/08/18 00:56:59;;;;;;;9.50;7.60;;;;;;;22.66;66.95;100945.60;102618;277;113557;-56
2023/08/18 00:59:38;;;;;;;10.30;9.00;;;;;;;22.74;67.19;100932.35;102608;277;93313;-55
2023/08/18 01:02:17;;;;;;;9.90;8.90;;;;;;;22.79;67.20;100913.86;102632;277;97120;-52
2023/08/18 01:05:00;;;;;;;10.60;7.80;;;;;;;22.80;67.56;100918.65;102580;277;120536;-52
2023/08/18 01:07:43;;;;;;;11.20;8.00;;;;;;;22.80;68.01;100916.17;102592;277;104275;-54
2023/08/18 01:10:20;;;;;;;9.70;7.90;;;;;;;22.81;68.69;100907.15;102610;277;112721;-55
2023/08/18 01:13:11;;;;;;;16.90;9.40;;;;;;;22.77;69.72;100924.73;102597;277;94539;-55
2023/08/18 01:15:57;;;;;;;12.80;8.50;;;;;;;22.63;71.53;100865.55;102599;277;97432;-56
2023/08/18 01:18:34;;;;;;;11.90;6.90;;;;;;;22.44;71.45;100862.66;102607;277;119964;-57
2023/08/18 01:21:15;;;;;;;10.30;6.70;;;;;;;22.29;71.82;100854.64;102655;277;105686;-54
2023/08/18 01:23:54;;;;;;;9.20;6.90;;;;;;;22.12;72.48;100857.30;102618;277;114634;-53
2023/08/18 01:26:36;;;;;;;12.20;7.20;;;;;;;22.00;73.06;100860.90;102611;277;96800;-55
2023/08/18 01:29:17;;;;;;;11.70;7.30;;;;;;;21.85;73.84;100876.36;102397;277;98104;-56
2023/08/18 01:32:08;;;;;;;13.80;8.10;;;;;;;21.79;74.63;100888.09;102670;277;118939;-55
2023/08/18 01:34:51;;;;;;;11.30;8.00;;;;;;;21.71;75.11;100898.27;102612;277;105088;-53
2023/08/18 01:37:29;;;;;;;12.30;7.60;;;;;;;21.64;75.65;100915.30;102647;277;114372;-56
2023/08/18 01:40:15;;;;;;;11.80;6.70;;;;;;;21.60;76.11;100923.10;102717;276;97522;-56
2023/08/18 01:42:55;;;;;;;8.70;6.50;;;;;;;21.51;76.53;100948.30;102713;276;97954;-54
2023/08/18 01:45:38;;;;;;;9.50;6.00;;;;;;;21.43;77.04;100969.36;102707;276;120467;-55
2023/08/18 01:48:21;;;;;;;8.10;6.40;;;;;;;21.43;77.82;100971.67;102770;276;105925;-54
2023/08/18 01:51:01;;;;;;;8.40;5.40;;;;;;;21.43;77.62;100989.83;102683;276;115463;-55
2023/08/18 01:53:38;;;;;;;5.70;5.00;;;;;;;21.43;77.56;100977.84;102712;276;96618;-56
2023/08/18 01:56:17;;;;;;;8.40;5.80;;;;;;;21.40;78.10;100969.70;102779;276;96995;-57
2023/08/18 01:58:54;;;;;;;6.20;5.40;;;;;;;21.38;78.03;100954.59;102690;276;120120;-58
2023/08/18 02:01:32;;;;;;;7.30;5.50;;;;;;;21.37;77.96;100940.02;102749;276;106166;-56
2023/08/18 02:04:10;;;;;;;7.50;5.30;;;;;;;21.34;78.23;100932.90;102713;276;113245;-57
2023/08/18 02:06:50;;;;;;;8.70;5.30;;;;;;;21.30;78.50;100921.02;102686;276;96132;-57
2023/08/18 02:09:26;;;;;;;6.20;5.10;;;;;;;21.17;78.88;100924.63;102723;276;98028;-57
2023/08/18 02:12:05;;;;;;;6.20;5.30;;;;;;;21.07;79.09;100932.11;102751;276;119770;-55
2023/08/18 02:14:42;;;;;;;7.20;5.70;;;;;;;21.06;79.57;100937.33;102702;276;105048;-56
2023/08/18 02:17:19;;;;;;;9.10;5.80;;;;;;;21.12;79.88;100938.05;102744;276;115089;-56
2023/08/18 02:20:00;;;;;;;6.20;5.50;;;;;;;21.18;79.89;100943.54;102727;276;96409;-54
2023/08/18 02:22:41;;;;;;;6.90;5.50;;;;;;;21.19;79.79;100941.71;102732;276;97602;-54
2023/08/18 02:25:22;;;;;;;9.80;5.20;;;;;;;21.20;80.17;100932.09;102732;276;120408;-54
2023/08/18 02:28:04;;;;;;;6.50;5.10;;;;;;;21.13;80.07;100915.20;102744;276;106228;-58
2023/08/18 02:30:46;;;;;;;5.90;5.30;;;;;;;21.15;79.88;100906.90;102713;276;114873;-58
2023/08/18 02:33:26;;;;;;;7.70;5.10;;;;;;;21.17;79.85;100905.02;102693;276;96011;-56
2023/08/18 02:36:12;;;;;;;6.10;5.40;;;;;;;21.13;80.20;100915.21;102770;276;98542;-55
2023/08/18 02:38:49;;;;;;;6.20;5.60;;;;;;;21.08;80.54;100934.67;102614;277;120006;-56
2023/08/18 02:41:30;;;;;;;5.90;5.30;;;;;;;21.10;80.46;100943.13;102737;276;105625;-55
2023/08/18 02:44:13;;;;;;;6.60;5.20;;;;;;;21.11;80.77;100956.43;102714;276;114178;-56
2023/08/18 02:46:52;;;;;;;7.00;5.80;;;;;;;21.02;80.82;100958.20;102749;277;96026;-55
2023/08/18 02:49:32;;;;;;;8.20;6.50;;;;;;;20.91;81.38;100960.23;102776;276;98216;-54
2023/08/18 02:52:10;;;;;;;7.90;5.80;;;;;;;20.87;81.75;100961.34;102747;277;120212;-56
2023/08/18 02:54:51;;;;;;;8.20;5.90;;;;;;;20.85;82.11;100964.33;102702;277;105139;-56
2023/08/18 02:57:32;;;;;;;9.40;6.60;;;;;;;20.87;82.30;100959.98;102734;276;114714;-58
2023/08/18 03:00:17;;;;;;;9.40;7.00;;;;;;;20.83;82.61;100951.60;102711;276;96039;-58
2023/08/18 03:02:53;;;;;;;8.20;6.60;;;;;;;20.79;82.95;100947.88;102774;276;97512;-54
2023/08/18 03:05:28;;;;;;;7.10;6.40;;;;;;;20.74;83.16;100943.57;102741;276;120631;-54
2023/08/18 03:08:10;;;;;;;8.60;6.90;;;;;;;20.72;83.20;100936.16;102704;276;105473;-56
2023/08/18 03:10:58;;;;;;;10.40;7.80;;;;;;;20.62;83.48;100916.83;102639;277;114505;-56
2023/08/18 03:13:33;;;;;;;7.60;6.10;;;;;;;20.62;83.77;100900.14;102236;276;584423;-56
2023/08/18 03:16:11;;;;;;;7.80;6.20;;;;;;;20.63;83.72;100888.85;102640;277;97410;-56
2023/08/18 03:18:50;;;;;;;8.70;6.80;;;;;;;20.63;83.70;100874.75;102716;276;120933;-55
2023/08/18 03:21:30;;;;;;;7.00;6.20;;;;;;;20.59;83.84;100866.59;102717;276;104647;-54
2023/08/18 03:24:07;;;;;;;8.90;6.00;;;;;;;20.55;84.15;100859.16;102716;276;114722;-54
2023/08/18 03:26:47;;;;;;;6.70;5.90;;;;;;;20.56;84.22;100850.77;102602;277;95936;-57
2023/08/18 03:29:27;;;;;;;9.00;6.20;;;;;;;20.54;84.28;100842.84;102698;276;96402;-57
2023/08/18 03:32:03;;;;;;;6.60;5.60;;;;;;;20.52;84.28;100840.88;102756;276;120971;-55
2023/08/18 03:34:47;;;;;;;7.30;5.70;;;;;;;20.57;84.38;100844.81;102705;276;106148;-56
2023/08/18 03:37:23;;;;;;;7.40;5.70;;;;;;;20.60;84.60;100840.92;102738;277;114457;-54
2023/08/18 03:40:03;;;;;;;8.80;6.00;;;;;;;20.60;84.70;100832.20;102746;276;96481;-54
2023/08/18 03:42:41;;;;;;;7.50;5.70;;;;;;;20.57;84.66;100825.70;102741;276;97239;-53
2023/08/18 03:45:16;;;;;;;5.40;4.90;;;;;;;20.52;84.55;100829.44;102724;276;120565;-53
2023/08/18 03:47:54;;;;;;;12.40;5.80;;;;;;;20.52;84.85;100830.98;102789;277;105970;-54
2023/08/18 03:50:31;;;;;;;6.70;5.30;;;;;;;20.50;84.85;100829.69;102708;276;112842;-55
2023/08/18 03:53:07;;;;;;;5.30;4.80;;;;;;;20.51;84.63;100827.40;102751;276;96242;-54
2023/08/18 03:55:44;;;;;;;6.50;5.90;;;;;;;20.56;84.70;100823.84;102695;276;97469;-53
2023/08/18 03:58:25;;;;;;;6.00;5.30;;;;;;;20.64;85.00;100818.92;102742;276;120926;-57
2023/08/18 04:01:08;;;;;;;5.70;5.10;;;;;;;20.71;84.86;100821.80;102719;276;105788;-53
2023/08/18 04:03:47;;;;;;;5.40;4.80;;;;;;;20.76;84.85;100824.86;102703;276;113566;-54
2023/08/18 04:06:27;;;;;;;6.50;5.20;;;;;;;20.80;85.04;100827.14;102736;277;96644;-53
2023/08/18 04:09:15;;;;;;;6.60;5.50;;;;;;;20.82;85.21;100823.33;102697;276;97060;-52
2023/08/18 04:11:54;;;;;;;5.90;4.90;;;;;;;20.86;84.94;100828.30;102736;265;118927;-54
2023/08/18 04:14:31;;;;;;;6.80;5.50;;;;;;;20.91;84.96;100825.48;102722;276;105564;-54
2023/08/18 04:17:08;;;;;;;5.70;5.10;;;;;;;20.95;85.04;100821.92;102738;276;114679;-57
2023/08/18 04:19:42;;;;;;;6.10;5.10;;;;;;;21.04;84.97;100820.49;102686;276;97552;-57
2023/08/18 04:22:22;;;;;;;6.30;5.60;;;;;;;21.14;84.83;100816.15;102716;276;97543;-53
2023/08/18 04:24:59;;;;;;;8.70;5.70;;;;;;;21.18;84.76;100810.11;102726;276;119609;-53
2023/08/18 04:27:33;;;;;;;6.60;5.90;;;;;;;21.35;84.48;100805.73;102746;276;105024;-55
2023/08/18 04:30:08;;;;;;;;;;;;;;;21.46;84.63;100805.86;102720;277;115070;-55
2023/08/18 04:32:45;;;;;;;6.90;5.70;;;;;;;21.53;84.75;100800.80;102779;277;96461;-55
2023/08/18 04:35:24;;;;;;;7.30;6.00;;;;;;;21.66;84.68;100799.61;102739;266;97185;-55
2023/08/18 04:38:04;;;;;;;7.40;5.70;;;;;;;21.76;84.66;100789.92;102734;277;120710;-58
2023/08/18 04:40:42;;;;;;;7.30;5.80;;;;;;;21.93;84.55;100791.46;102740;276;105654;-57
2023/08/18 04:43:23;;;;;;;7.20;6.10;;;;;;;22.16;84.44;100786.58;102728;276;114627;-56
2023/08/18 04:46:02;;;;;;;6.50;5.70;;;;;;;22.30;83.97;100777.95;102725;276;96624;-55
2023/08/18 04:48:46;;;;;;;9.20;6.30;;;;;;;22.54;83.50;100771.96;102748;276;97998;-54
2023/08/18 04:51:24;;;;;;;6.50;5.50;;;;;;;22.87;82.89;100767.70;102737;276;120954;-53
2023/08/18 04:54:05;;;;;;;11.20;7.00;;;;;;;23.20;82.23;100764.14;102732;276;105270;-53
2023/08/18 04:56:45;;;;;;;6.20;5.50;;;;;;;23.64;81.30;100763.55;102730;277;113962;-53
2023/08/18 04:59:23;;;;;;;7.60;5.50;;;;;;;23.75;80.77;100760.63;102689;277;96058;-55
2023/08/18 05:02:02;;;;;;;6.30;5.40;;;;;;;23.73;80.85;100766.98;102735;276;97335;-55
2023/08/18 05:04:37;;;;;;;6.30;5.00;;;;;;;23.77;80.95;100766.27;102671;276;120703;-54
2023/08/18 05:07:15;;;;;;;8.00;5.10;;;;;;;23.85;81.07;100768.31;102731;276;105521;-56
2023/08/18 05:09:56;;;;;;;8.60;5.40;;;;;;;23.91;80.48;100773.80;102687;276;114750;-55
2023/08/18 05:12:33;;;;;;;8.40;5.30;;;;;;;24.02;79.77;100774.85;102761;276;94499;-57
2023/08/18 05:15:11;;;;;;;6.90;5.40;;;;;;;24.05;79.59;100772.27;102837;276;96197;-58
2023/08/18 05:17:48;;;;;;;6.70;6.00;;;;;;;24.12;79.84;100775.48;102749;276;120701;-53
2023/08/18 05:20:30;;;;;;;5.80;5.20;;;;;;;24.19;79.23;100772.48;102712;266;105278;-52
2023/08/18 05:23:07;;;;;;;6.20;5.60;;;;;;;24.19;78.49;100772.87;102779;276;114313;-56
2023/08/18 05:25:47;;;;;;;6.50;5.30;;;;;;;24.22;78.10;100768.23;102740;276;97703;-56
2023/08/18 05:28:32;;;;;;;7.10;4.90;;;;;;;24.26;77.99;100769.41;102742;277;95819;-55
2023/08/18 05:31:13;;;;;;;5.50;4.80;;;;;;;24.28;78.10;100767.76;102735;277;121205;-55
2023/08/18 05:33:52;;;;;;;5.80;5.20;;;;;;;24.43;77.75;100767.65;102729;276;105503;-57
2023/08/18 05:36:31;;;;;;;7.40;5.20;;;;;;;24.48;77.73;100763.80;102742;276;114294;-55
2023/08/18 05:39:17;;;;;;;7.20;5.40;;;;;;;24.87;77.59;100762.88;102718;276;97444;-54
2023/08/18 05:41:57;;;;;;;12.60;8.70;;;;;;;26.30;76.71;100760.70;102766;277;99139;-54
2023/08/18 05:44:37;;;;;;;10.60;6.70;;;;;;;27.40;74.53;100760.65;102719;276;120357;-54
2023/08/18 05:47:14;;;;;;;6.80;5.70;;;;;;;28.08;72.70;100761.79;102735;276;106110;-55
2023/08/18 05:49:56;;;;;;;5.80;5.20;;;;;;;28.73;71.11;100765.48;102687;276;113902;-55
2023/08/18 05:52:36;;;;;;;5.30;4.30;;;;;;;29.81;69.23;100764.39;102711;266;93449;-54
2023/08/18 05:55:13;;;;;;;5.60;4.00;;;;;;;31.02;66.46;100763.35;102717;276;97781;-53
2023/08/18 05:57:57;;;;;;;6.60;4.50;;;;;;;31.83;63.89;100761.05;102727;277;119241;-54
2023/08/18 06:00:39;;;;;;;6.00;4.00;;;;;;;32.63;61.81;100767.58;102698;276;104566;-55
2023/08/18 06:03:19;;;;;;;6.50;4.10;;;;;;;33.16;59.76;100761.14;102746;276;116104;-57
2023/08/18 06:05:57;;;;;;;4.80;3.70;;;;;;;33.58;58.02;100757.42;102716;276;94259;-57
2023/08/18 06:08:41;;;;;;;5.70;3.60;;;;;;;34.17;56.48;100756.76;102673;276;97976;-54
2023/08/18 06:11:17;;;;;;;5.80;3.80;;;;;;;34.70;53.86;100756.15;102731;276;121154;-55
2023/08/18 06:14:00;;;;;;;5.50;3.50;;;;;;;34.81;52.38;100759.60;102734;277;104579;-61
2023/08/18 06:16:42;;;;;;;5.00;3.40;;;;;;;35.24;51.88;100752.36;102760;276;115024;-61
2023/08/18 06:19:25;;;;;;;4.10;3.50;;;;;;;35.33;50.27;100755.89;102546;278;97069;-61
2023/08/18 06:22:06;;;;;;;4.40;3.70;;;;;;;35.54;48.92;100750.07;102751;276;97641;-62
2023/08/18 06:24:42;;;;;;;5.80;3.40;;;;;;;35.79;47.64;100752.49;102712;276;121273;-61
2023/08/18 06:27:25;;;;;;;4.20;3.80;;;;;;;35.11;47.21;100753.96;102717;276;106135;-60
2023/08/18 06:30:06;;;;;;;4.00;3.50;;;;;;;34.34;47.16;100756.67;102701;276;113098;-61
2023/08/18 06:32:45;;;;;;;4.60;3.90;;;;;;;33.29;48.10;100758.40;102528;276;94062;-62
2023/08/18 06:35:25;;;;;;;5.10;4.00;;;;;;;32.07;49.03;100758.81;102713;276;97787;-62
2023/08/18 06:38:17;;;;;;;4.60;4.20;;;;;;;32.00;50.19;100758.67;102755;276;119067;-62
2023/08/18 06:41:01;;;;;;;4.10;3.70;;;;;;;32.95;49.63;100760.81;102714;276;105502;-63
2023/08/18 06:43:42;;;;;;;6.80;3.80;;;;;;;33.14;48.89;100754.34;102754;277;112705;-62
2023/08/18 06:46:20;;;;;;;4.90;3.60;;;;;;;33.09;49.01;100755.95;102708;276;94200;-61
2023/08/18 06:48:56;;;;;;;4.80;4.10;;;;;;;32.88;48.28;100762.48;102772;276;98264;-55
2023/08/18 06:51:41;;;;;;;5.70;4.00;;;;;;;32.43;48.43;100763.88;102761;276;119534;-57
2023/08/18 06:54:21;;;;;;;4.30;3.90;;;;;;;31.59;48.99;100757.38;102760;276;104941;-57
2023/08/18 06:57:06;;;;;;;6.40;4.40;;;;;;;30.80;50.37;100757.13;102788;276;113567;-57
2023/08/18 06:59:44;;;;;;;5.50;4.50;;;;;;;30.28;51.75;100762.58;102528;277;96008;-57
2023/08/18 07:02:26;;;;;;;6.40;4.50;;;;;;;29.84;52.30;100758.95;102751;277;96356;-52
2023/08/18 07:05:07;;;;;;;8.20;4.30;;;;;;;29.61;53.25;100758.70;102742;277;119244;-53
2023/08/18 07:07:45;;;;;;;5.00;4.50;;;;;;;29.56;54.11;100755.73;102757;277;105485;-57
2023/08/18 07:10:23;;;;;;;7.40;4.80;;;;;;;29.40;54.47;100757.20;102759;277;113750;-57
2023/08/18 07:13:05;;;;;;;6.80;4.70;;;;;;;29.22;55.14;100754.12;102771;276;95581;-57
2023/08/18 07:15:45;;;;;;;5.40;4.50;;;;;;;29.20;55.37;100759.37;102753;276;95956;-56
2023/08/18 07:18:24;;;;;;;5.20;4.60;;;;;;;29.34;55.75;100760.80;102797;276;119395;-55
2023/08/18 07:21:00;;;;;;;6.00;4.90;;;;;;;30.11;55.38;100767.23;102726;276;105107;-65
2023/08/18 07:23:37;;;;;;;6.40;5.10;;;;;;;30.56;54.58;100768.90;102699;277;114592;-65
2023/08/18 07:26:13;;;;;;;5.40;4.60;;;;;;;31.39;53.87;100765.48;102701;276;94695;-53
2023/08/18 07:28:50;;;;;;;7.90;5.30;;;;;;;32.12;52.64;100769.13;102745;276;97633;-53
2023/08/18 07:31:26;;;;;;;4.90;4.40;;;;;;;32.95;51.55;100765.19;102760;276;120041;-54
2023/08/18 07:34:10;;;;;;;5.20;4.20;;;;;;;33.71;49.88;100764.09;102735;276;105650;-54
2023/08/18 07:36:50;;;;;;;4.40;4.00;;;;;;;34.17;47.44;100764.21;102706;276;114089;-53
2023/08/18 07:39:29;;;;;;;4.60;3.60;;;;;;;34.36;46.84;100764.44;102745;276;94409;-53
2023/08/18 07:42:06;;;;;;;4.80;3.80;;;;;;;34.71;45.51;100764.32;102759;276;97085;-56
2023/08/18 07:44:44;;;;;;;6.10;4.20;;;;;;;34.02;44.90;100767.36;102711;277;119628;-55
2023/08/18 07:47:18;;;;;;;4.90;3.80;;;;;;;33.32;45.47;100771.09;102741;276;104932;-55
2023/08/18 07:49:57;;;;;;;6.60;4.40;;;;;;;33.73;45.85;100776.10;102697;277;114310;-55
2023/08/18 07:52:37;;;;;;;5.30;3.80;;;;;;;34.67;44.70;100771.24;102502;277;93504;-55
2023/08/18 07:55:12;;;;;;;5.00;3.90;;;;;;;35.79;43.74;100769.59;102694;276;98100;-56
2023/08/18 07:57:50;;;;;;;5.10;4.40;;;;;;;36.60;42.23;100768.69;102728;276;120742;-52
2023/08/18 08:00:29;;;;;;;4.50;4.10;;;;;;;36.87;41.09;100778.73;102699;277;104367;-52
2023/08/18 08:03:06;;;;;;;5.10;4.10;;;;;;;37.23;39.90;100774.92;102739;276;114295;-53
2023/08/18 08:05:41;;;;;;;5.90;4.50;;;;;;;37.30;39.80;100772.79;102522;279;95236;-54
2023/08/18 08:08:20;;;;;;;5.60;4.70;;;;;;;37.82;39.11;100775.28;102725;276;97400;-54
2023/08/18 08:11:00;;;;;;;5.10;4.70;;;;;;;38.21;38.70;100772.91;102702;276;120971;-51
2023/08/18 08:13:36;;;;;;;5.80;4.60;;;;;;;38.18;37.71;100781.47;102746;276;104048;-52
2023/08/18 08:16:14;;;;;;;7.30;4.70;;;;;;;38.38;37.73;100782.61;102724;276;113841;-53
2023/08/18 08:18:55;;;;;;;5.70;4.80;;;;;;;38.86;37.30;100781.34;102723;276;94281;-54
2023/08/18 08:21:35;;;;;;;7.60;5.20;;;;;;;39.31;37.09;100782.16;102726;276;96044;-53
2023/08/18 08:24:16;;;;;;;7.90;5.10;;;;;;;39.44;36.46;100789.04;102707;276;119942;-54
2023/08/18 08:26:51;;;;;;;8.00;5.00;;;;;;;39.44;35.90;100788.56;102757;276;105211;-55
2023/08/18 08:29:28;;;;;;;7.30;5.20;;;;;;;39.51;35.85;100787.65;102748;266;114535;-56
2023/08/18 08:32:07;;;;;;;5.50;4.80;;;;;;;39.76;35.46;100781.75;102754;276;95618;-57
2023/08/18 08:34:51;;;;;;;6.60;5.00;;;;;;;39.75;34.81;100782.77;102588;277;98635;-57
2023/08/18 08:37:33;;;;;;;6.90;5.20;;;;;;;39.48;34.91;100786.70;102732;277;121093;-57
2023/08/18 08:40:17;;;;;;;6.30;4.80;;;;;;;39.55;34.38;100785.77;102733;277;104952;-57
2023/08/18 08:43:02;;;;;;;5.60;5.00;;;;;;;39.23;34.38;100787.33;102728;276;114018;-57
2023/08/18 08:45:40;;;;;;;6.10;5.00;;;;;;;38.97;34.44;100787.46;102650;276;92106;-57
2023/08/18 08:48:20;;;;;;;5.70;4.90;;;;;;;39.00;34.59;100785.67;102737;276;97191;-52
2023/08/18 08:51:03;;;;;;;5.50;5.00;;;;;;;39.20;34.21;100789.02;102675;276;120213;-53
2023/08/18 08:53:48;;;;;;;15.40;5.40;;;;;;;39.20;34.25;100790.40;102748;277;106155;-52
2023/08/18 08:56:35;;;;;;;6.70;5.40;;;;;;;39.15;34.29;100787.54;102522;266;114318;-57
2023/08/18 08:59:12;;;;;;;5.50;4.70;;;;;;;39.39;34.56;100782.31;102722;276;93313;-57
2023/08/18 09:01:52;;;;;;;5.40;4.90;;;;;;;39.66;34.58;100780.29;102722;276;97467;-54
2023/08/18 09:08:00;;;;;;;6.10;5.00;;;;;;;39.99;33.79;100781.77;102787;276;105600;-53
2023/08/18 09:10:39;;;;;;;5.20;4.70;;;;;;;39.65;33.15;100781.86;102841;276;114776;-54
2023/08/18 09:13:19;;;;;;;5.20;4.80;;;;;;;39.04;33.27;100778.91;102768;276;94024;-54
2023/08/18 09:15:54;;;;;;;5.80;5.00;;;;;;;39.04;34.11;100775.58;102816;276;96175;-54
2023/08/18 09:18:34;;;;;;;5.60;4.90;;;;;;;38.55;34.22;100773.42;102829;276;119837;-54
2023/08/18 09:21:08;;;;;;;6.80;5.20;;;;;;;38.28;34.41;100768.91;102851;276;104411;-54
2023/08/18 09:23:46;;;;;;;6.40;5.30;;;;;;;37.84;34.52;100775.80;102829;275;114337;-54
2023/08/18 09:26:29;;;;;;;5.50;5.00;;;;;;;37.21;35.19;100769.93;102843;276;93986;-56
2023/08/18 09:29:05;;;;;;;7.80;5.30;;;;;;;36.88;35.91;100770.48;102848;276;97857;-53
2023/08/18 09:31:45;;;;;;;5.80;4.90;;;;;;;36.39;36.14;100761.26;102818;276;119239;-55
2023/08/18 09:34:35;;;;;;;7.00;5.10;;;;;;;35.92;36.92;100759.78;102830;276;104906;-53
2023/08/18 09:37:20;;;;;;;7.80;5.00;;;;;;;35.66;37.61;100760.40;102819;276;113450;-53
2023/08/18 09:40:05;;;;;;;7.80;5.50;;;;;;;35.32;37.79;100756.73;102832;276;92862;-52
2023/08/18 09:42:50;;;;;;;5.50;5.00;;;;;;;34.92;38.15;100760.19;102821;276;96564;-53
2023/08/18 09:45:32;;;;;;;6.00;5.20;;;;;;;34.52;38.50;100757.15;102848;276;120744;-55
2023/08/18 09:48:13;;;;;;;5.70;4.80;;;;;;;34.38;38.90;100752.98;102827;276;106367;-54
2023/08/18 09:50:54;;;;;;;5.40;4.80;;;;;;;34.11;38.72;100757.33;102821;276;113823;-54
2023/08/18 09:53:33;;;;;;;6.90;4.40;;;;;;;33.81;38.99;100752.74;102856;276;94464;-54
2023/08/18 09:56:15;;;;;;;5.40;4.80;;;;;;;33.71;39.47;100751.04;102857;276;98164;-53
2023/08/18 09:58:58;;;;;;;5.00;4.50;;;;;;;33.63;39.54;100751.92;102882;276;121425;-65
2023/08/18 10:01:35;;;;;;;;;;;;;;;33.55;39.92;100743.59;102767;276;105964;-66
2023/08/18 10:04:14;;;;;;;5.40;5.00;;;;;;;33.63;40.19;100736.27;102815;276;113625;-66
2023/08/18 10:06:55;;;;;;;8.20;5.10;;;;;;;33.60;39.80;100744.63;102787;276;94364;-65
2023/08/18 10:09:34;;;;;;;8.20;5.10;;;;;;;33.27;39.66;100742.13;102816;276;97361;-64
2023/08/18 10:12:11;;;;;;;6.60;5.00;;;;;;;33.35;39.77;100748.08;102799;276;120768;-63
2023/08/18 10:14:53;;;;;;;8.00;5.20;;;;;;;33.25;39.46;100746.35;102834;276;103701;-64
2023/08/18 10:17:29;;;;;;;6.00;5.10;;;;;;;33.19;39.94;100737.59;102854;276;113193;-64
2023/08/18 10:20:10;;;;;;;5.50;5.00;;;;;;;33.32;40.06;100739.29;102865;276;95853;-66
2023/08/18 10:22:50;;;;;;;6.10;5.20;;;;;;;33.20;39.76;100737.00;102879;276;97480;-66
2023/08/18 10:25:36;;;;;;;6.00;5.40;;;;;;;33.15;39.64;100733.98;102853;276;120841;-69
2023/08/18 10:28:19;;;;;;;5.60;5.10;;;;;;;33.15;39.74;100730.48;102856;276;104346;-68
2023/08/18 10:31:10;;;;;;;6.70;5.00;;;;;;;33.12;39.67;100733.36;102842;276;113500;-65
2023/08/18 10:33:49;;;;;;;6.10;4.90;;;;;;;33.00;39.22;100733.84;102847;276;94650;-65
2023/08/18 10:36:33;;;;;;;7.50;5.60;;;;;;;32.87;39.09;100729.23;102724;276;99316;-64
2023/08/18 10:39:36;;;;;;;6.50;5.90;;;;;;;32.73;39.44;100735.29;102829;276;120272;-67
2023/08/18 10:42:19;;;;;;;6.00;5.40;;;;;;;32.84;39.84;100733.42;102855;276;104258;-67
2023/08/18 10:45:07;;;;;;;;;;;;;;;33.07;39.99;100736.16;102860;276;114999;-67
2023/08/18 10:47:43;;;;;;;7.00;5.20;;;;;;;32.98;39.49;100734.04;102814;276;95017;-67
2023/08/18 10:50:26;;;;;;;6.00;5.40;;;;;;;33.24;39.48;100732.11;102876;276;97586;-65
2023/08/18 10:53:18;;;;;;;7.90;5.80;;;;;;;33.20;39.24;100733.67;102813;276;119020;-65
2023/08/18 10:55:56;;;;;;;5.90;5.40;;;;;;;32.94;39.39;100733.54;102880;276;105096;-63
2023/08/18 10:58:34;;;;;;;7.50;5.50;;;;;;;32.70;39.63;100735.49;102871;276;114782;-53
2023/08/18 11:01:11;;;;;;;6.70;5.80;;;;;;;32.45;40.08;100737.14;102880;276;93094;-57
2023/08/18 11:03:54;;;;;;;5.90;5.30;;;;;;;32.35;40.20;100735.96;102875;276;97949;-57
2023/08/18 11:06:32;;;;;;;6.00;5.30;;;;;;;32.31;40.55;100727.52;102799;264;119865;-55
2023/08/18 11:09:12;;;;;;;6.60;6.00;;;;;;;32.30;41.09;100723.40;102861;275;105375;-54
2023/08/18 11:11:50;;;;;;;6.40;5.80;;;;;;;32.28;40.83;100721.91;102841;276;114832;-53
2023/08/18 11:14:28;;;;;;;5.80;5.30;;;;;;;32.30;40.72;100724.98;102267;276;631620;-54
2023/08/18 11:17:12;;;;;;;4.90;4.50;;;;;;;32.25;40.51;100723.52;102789;276;98184;-54
2023/08/18 11:19:49;;;;;;;5.30;4.70;;;;;;;32.40;40.65;100728.74;102840;275;121175;-54
2023/08/18 11:22:30;;;;;;;6.40;5.20;;;;;;;32.44;40.75;100721.48;102819;276;104334;-54
2023/08/18 11:25:12;;;;;;;6.70;5.80;;;;;;;32.49;40.73;100726.23;102588;276;114238;-53
2023/08/18 11:27:49;;;;;;;6.50;5.70;;;;;;;32.47;40.83;100724.41;102838;276;95416;-53
2023/08/18 11:30:25;;;;;;;5.50;4.80;;;;;;;32.46;40.86;100722.70;102863;276;96915;-55
2023/08/18 11:33:04;;;;;;;6.10;5.20;;;;;;;32.41;40.60;100725.72;102891;276;120856;-55
2023/08/18 11:35:45;;;;;;;5.40;4.90;;;;;;;32.40;40.32;100722.05;102886;276;105134;-56
2023/08/18 11:38:21;;;;;;;6.30;5.30;;;;;;;32.39;40.51;100720.52;102861;275;114988;-56
2023/08/18 11:40:59;;;;;;;5.30;4.80;;;;;;;32.31;40.57;100724.95;102927;276;94842;-56
2023/08/18 11:43:41;;;;;;;6.00;5.20;;;;;;;32.19;40.69;100718.14;102917;275;97161;-56
2023/08/18 11:46:16;;;;;;;6.00;5.10;;;;;;;32.19;40.83;100714.85;102891;275;120029;-53
2023/08/18 11:48:55;;;;;;;9.00;5.00;;;;;;;32.26;40.69;100712.94;102812;275;105120;-54
2023/08/18 11:51:30;;;;;;;8.50;5.40;;;;;;;32.44;40.66;100708.48;102832;276;114760;-53
2023/08/18 11:54:21;;;;;;;5.50;5.00;;;;;;;32.61;40.52;100699.63;102845;275;93509;-53
2023/08/18 11:57:01;;;;;;;5.60;4.40;;;;;;;32.75;40.32;100702.34;102814;276;97724;-52
2023/08/18 11:59:43;;;;;;;4.70;4.30;;;;;;;32.84;39.76;100698.11;102845;275;119866;-54
2023/08/18 12:02:23;;;;;;;5.60;4.60;;;;;;;32.67;39.35;100697.27;102793;276;105675;-54
2023/08/18 12:05:01;;;;;;;6.40;4.60;;;;;;;32.54;39.36;100693.47;102867;275;113669;-54
2023/08/18 12:07:43;;;;;;;5.10;4.60;;;;;;;32.35;39.40;100697.48;102816;275;94949;-54
2023/08/18 12:10:20;;;;;;;6.00;4.50;;;;;;;32.21;39.60;100691.92;102919;276;97468;-57
2023/08/18 12:13:07;;;;;;;5.60;4.90;;;;;;;32.26;39.77;100684.61;102793;276;120886;-55
2023/08/18 12:15:44;;;;;;;6.80;4.80;;;;;;;32.35;39.81;100679.91;102842;275;104874;-55
2023/08/18 12:18:26;;;;;;;5.30;4.70;;;;;;;32.15;39.28;100685.40;102826;275;113995;-56
2023/08/18 12:21:06;;;;;;;5.50;5.00;;;;;;;32.15;39.79;100687.15;102814;275;92168;-53